sensor_id;sensor_type;location;lat;lon;timestamp;pressure;altitude;pressure_sealevel;temperature;humidity
69239;BME280;56349;51.816;-0.026;2023-04-02T00:00:17;101180.91;;;20.74;37.43
69239;BME280;56349;51.816;-0.026;2023-04-02T00:02:46;101180.74;;;20.69;37.48
69239;BME280;56349;51.816;-0.026;2023-04-02T00:07:31;101186.58;;;20.31;37.62
69239;BME280;56349;51.816;-0.026;2023-04-02T00:09:57;101188.70;;;20.51;37.70
69239;BME280;56349;51.816;-0.026;2023-04-02T00:12:23;101192.23;;;20.46;37.76
69239;BME280;56349;51.816;-0.026;2023-04-02T00:14:51;101197.07;;;20.40;37.84
69239;BME280;56349;51.816;-0.026;2023-04-02T00:17:14;101199.82;;;20.33;37.92
69239;BME280;56349;51.816;-0.026;2023-04-02T00:19:44;101205.22;;;20.29;37.98
69239;BME280;56349;51.816;-0.026;2023-04-02T00:22:08;101209.41;;;20.26;38.00
69239;BME280;56349;51.816;-0.026;2023-04-02T00:24:32;101210.50;;;20.22;38.06
69239;BME280;56349;51.816;-0.026;2023-04-02T00:26:57;101218.49;;;20.42;38.09
69239;BME280;56349;51.816;-0.026;2023-04-02T00:29:23;101221.74;;;20.15;38.14
69239;BME280;56349;51.816;-0.026;2023-04-02T00:31:50;101225.89;;;20.31;38.22
69239;BME280;56349;51.816;-0.026;2023-04-02T00:34:17;101231.35;;;20.06;38.26
69239;BME280;56349;51.816;-0.026;2023-04-02T00:36:40;101236.08;;;20.22;38.33
69239;BME280;56349;51.816;-0.026;2023-04-02T00:39:11;101238.73;;;19.96;38.38
69239;BME280;56349;51.816;-0.026;2023-04-02T00:41:31;101238.65;;;19.93;38.41
69239;BME280;56349;51.816;-0.026;2023-04-02T00:43:57;101238.82;;;19.90;38.43
69239;BME280;56349;51.816;-0.026;2023-04-02T00:46:26;101242.76;;;19.86;38.49
69239;BME280;56349;51.816;-0.026;2023-04-02T00:48:51;101242.86;;;20.05;38.53
69239;BME280;56349;51.816;-0.026;2023-04-02T00:51:18;101246.50;;;19.78;38.58
69239;BME280;56349;51.816;-0.026;2023-04-02T00:53:39;101249.47;;;19.96;38.63
69239;BME280;56349;51.816;-0.026;2023-04-02T00:56:12;101253.16;;;19.91;38.69
69239;BME280;56349;51.816;-0.026;2023-04-02T00:58:33;101253.64;;;19.67;38.72
69239;BME280;56349;51.816;-0.026;2023-04-02T01:00:57;101256.88;;;20.09;38.73
69239;BME280;56349;51.816;-0.026;2023-04-02T01:03:28;101263.25;;;19.62;38.76
69239;BME280;56349;51.816;-0.026;2023-04-02T01:05:49;101266.53;;;20.02;38.81
69239;BME280;56349;51.816;-0.026;2023-04-02T01:08:18;101270.25;;;19.76;38.84
69239;BME280;56349;51.816;-0.026;2023-04-02T01:10:48;101272.65;;;19.49;38.90
69239;BME280;56349;51.816;-0.026;2023-04-02T01:13:12;101274.51;;;19.46;38.97
69239;BME280;56349;51.816;-0.026;2023-04-02T01:15:33;101275.42;;;19.64;38.99
69239;BME280;56349;51.816;-0.026;2023-04-02T01:18:04;101281.89;;;19.60;39.02
69239;BME280;56349;51.816;-0.026;2023-04-02T01:22:50;101286.86;;;19.73;39.15
69239;BME280;56349;51.816;-0.026;2023-04-02T01:25:13;101294.51;;;19.70;39.17
69239;BME280;56349;51.816;-0.026;2023-04-02T01:27:42;101299.45;;;19.68;39.20
69239;BME280;56349;51.816;-0.026;2023-04-02T01:30:05;101305.99;;;19.67;39.22
69239;BME280;56349;51.816;-0.026;2023-04-02T01:32:29;101305.12;;;19.44;39.21
69239;BME280;56349;51.816;-0.026;2023-04-02T01:34:55;101305.99;;;19.43;39.21
69239;BME280;56349;51.816;-0.026;2023-04-02T01:37:29;101308.28;;;19.64;39.22
69239;BME280;56349;51.816;-0.026;2023-04-02T01:39:58;101310.32;;;19.60;39.26
69239;BME280;56349;51.816;-0.026;2023-04-02T01:42:16;101316.75;;;19.57;39.28
69239;BME280;56349;51.816;-0.026;2023-04-02T01:44:40;101317.50;;;19.51;39.35
69239;BME280;56349;51.816;-0.026;2023-04-02T01:47:06;101323.19;;;19.48;39.37
69239;BME280;56349;51.816;-0.026;2023-04-02T01:49:27;101327.06;;;19.46;39.40
69239;BME280;56349;51.816;-0.026;2023-04-02T01:51:54;101331.49;;;19.48;39.38
69239;BME280;56349;51.816;-0.026;2023-04-02T01:54:20;101329.78;;;19.49;39.36
69239;BME280;56349;51.816;-0.026;2023-04-02T01:56:45;101336.87;;;19.49;39.34
69239;BME280;56349;51.816;-0.026;2023-04-02T01:59:16;101346.21;;;19.48;39.34
69239;BME280;56349;51.816;-0.026;2023-04-02T02:01:41;101350.44;;;19.24;39.36
69239;BME280;56349;51.816;-0.026;2023-04-02T02:04:01;101354.71;;;19.44;39.37
69239;BME280;56349;51.816;-0.026;2023-04-02T02:06:26;101360.12;;;19.41;39.40
69239;BME280;56349;51.816;-0.026;2023-04-02T02:08:55;101361.37;;;19.36;39.44
69239;BME280;56349;51.816;-0.026;2023-04-02T02:11:19;101367.09;;;19.31;39.50
69239;BME280;56349;51.816;-0.026;2023-04-02T02:13:45;101365.43;;;19.28;39.53
69239;BME280;56349;51.816;-0.026;2023-04-02T02:16:12;101364.88;;;19.51;39.56
69239;BME280;56349;51.816;-0.026;2023-04-02T02:18:35;101371.92;;;19.23;39.57
69239;BME280;56349;51.816;-0.026;2023-04-02T02:21:03;101372.26;;;19.24;39.55
69239;BME280;56349;51.816;-0.026;2023-04-02T02:23:27;101375.24;;;19.23;39.54
69239;BME280;56349;51.816;-0.026;2023-04-02T02:25:53;101381.45;;;19.18;39.58
69239;BME280;56349;51.816;-0.026;2023-04-02T02:28:22;101388.40;;;19.41;39.65
69239;BME280;56349;51.816;-0.026;2023-04-02T02:30:45;101387.49;;;19.12;39.66
69239;BME280;56349;51.816;-0.026;2023-04-02T02:33:15;101388.73;;;19.14;39.62
69239;BME280;56349;51.816;-0.026;2023-04-02T02:35:41;101388.63;;;19.13;39.62
69239;BME280;56349;51.816;-0.026;2023-04-02T02:38:19;101387.74;;;19.37;39.62
69239;BME280;56349;51.816;-0.026;2023-04-02T02:40:30;101388.93;;;19.06;39.68
69239;BME280;56349;51.816;-0.026;2023-04-02T02:42:56;101390.59;;;19.05;39.69
69239;BME280;56349;51.816;-0.026;2023-04-02T02:45:21;101391.54;;;19.04;39.70
69239;BME280;56349;51.816;-0.026;2023-04-02T02:47:43;101392.11;;;19.28;39.71
69239;BME280;56349;51.816;-0.026;2023-04-02T02:50:13;101395.23;;;18.98;39.73
69239;BME280;56349;51.816;-0.026;2023-04-02T02:52:35;101400.12;;;18.97;39.74
69239;BME280;56349;51.816;-0.026;2023-04-02T02:55:03;101402.41;;;19.22;39.74
69239;BME280;56349;51.816;-0.026;2023-04-02T02:57:27;101407.12;;;19.21;39.74
69239;BME280;56349;51.816;-0.026;2023-04-02T02:59:51;101412.13;;;19.19;39.74
69239;BME280;56349;51.816;-0.026;2023-04-02T03:02:18;101421.03;;;19.18;39.74
69239;BME280;56349;51.816;-0.026;2023-04-02T03:04:46;101423.09;;;19.13;39.79
69239;BME280;56349;51.816;-0.026;2023-04-02T03:07:08;101424.45;;;19.09;39.83
69239;BME280;56349;51.816;-0.026;2023-04-02T03:09:39;101427.44;;;18.79;39.87
69239;BME280;56349;51.816;-0.026;2023-04-02T03:12:04;101441.40;;;18.78;39.88
69239;BME280;56349;51.816;-0.026;2023-04-02T03:14:31;101446.39;;;18.81;39.83
69239;BME280;56349;51.816;-0.026;2023-04-02T03:16:57;101448.35;;;18.82;39.81
69239;BME280;56349;51.816;-0.026;2023-04-02T03:19:25;101451.00;;;18.81;39.81
69239;BME280;56349;51.816;-0.026;2023-04-02T03:21:47;101454.55;;;19.09;39.78
69239;BME280;56349;51.816;-0.026;2023-04-02T03:24:12;101455.78;;;18.85;39.73
69239;BME280;56349;51.816;-0.026;2023-04-02T03:26:38;101463.90;;;18.86;39.70
69239;BME280;56349;51.816;-0.026;2023-04-02T03:29:03;101466.79;;;19.09;39.73
69239;BME280;56349;51.816;-0.026;2023-04-02T03:31:29;101470.24;;;18.80;39.82
69239;BME280;56349;51.816;-0.026;2023-04-02T03:33:53;101478.94;;;19.08;39.97
69239;BME280;56349;51.816;-0.026;2023-04-02T03:36:19;101477.77;;;19.13;40.10
69239;BME280;56349;51.816;-0.026;2023-04-02T03:38:43;101481.29;;;19.46;40.15
69239;BME280;56349;51.816;-0.026;2023-04-02T03:41:12;101487.16;;;19.11;40.05
69239;BME280;56349;51.816;-0.026;2023-04-02T03:43:38;101484.97;;;19.29;39.93
69239;BME280;56349;51.816;-0.026;2023-04-02T03:46:10;101492.94;;;19.49;39.64
69239;BME280;56349;51.816;-0.026;2023-04-02T03:48:28;101491.39;;;19.43;39.34
69239;BME280;56349;51.816;-0.026;2023-04-02T03:50:52;101494.82;;;19.57;39.09
69239;BME280;56349;51.816;-0.026;2023-04-02T03:53:15;101498.20;;;19.70;38.85
69239;BME280;56349;51.816;-0.026;2023-04-02T03:55:42;101503.77;;;19.58;38.63
69239;BME280;56349;51.816;-0.026;2023-04-02T03:58:12;101507.46;;;19.85;38.48
69239;BME280;56349;51.816;-0.026;2023-04-02T04:00:35;101511.08;;;19.66;38.34
69239;BME280;56349;51.816;-0.026;2023-04-02T04:03:03;101514.20;;;19.88;38.24
69239;BME280;56349;51.816;-0.026;2023-04-02T04:05:27;101521.14;;;19.65;38.16
69239;BME280;56349;51.816;-0.026;2023-04-02T04:07:52;101527.05;;;19.64;38.07
69239;BME280;56349;51.816;-0.026;2023-04-02T04:10:18;101528.64;;;19.59;38.05
69239;BME280;56349;51.816;-0.026;2023-04-02T04:12:45;101532.09;;;19.56;38.03
69239;BME280;56349;51.816;-0.026;2023-04-02T04:15:12;101527.76;;;19.55;37.97
69239;BME280;56349;51.816;-0.026;2023-04-02T04:17:38;101525.80;;;19.53;37.92
69239;BME280;56349;51.816;-0.026;2023-04-02T04:20:02;101523.52;;;19.70;37.91
69239;BME280;56349;51.816;-0.026;2023-04-02T04:22:26;101520.56;;;19.63;37.93
69239;BME280;56349;51.816;-0.026;2023-04-02T04:24:50;101521.51;;;19.60;37.92
69239;BME280;56349;51.816;-0.026;2023-04-02T04:27:22;101527.45;;;19.55;37.93
69239;BME280;56349;51.816;-0.026;2023-04-02T04:29:48;101528.83;;;19.49;37.96
69239;BME280;56349;51.816;-0.026;2023-04-02T04:32:15;101537.35;;;19.44;38.00
69239;BME280;56349;51.816;-0.026;2023-04-02T04:34:37;101544.87;;;19.37;38.04
69239;BME280;56349;51.816;-0.026;2023-04-02T04:37:00;101550.33;;;19.78;38.11
69239;BME280;56349;51.816;-0.026;2023-04-02T04:39:28;101559.03;;;19.47;38.12
69239;BME280;56349;51.816;-0.026;2023-04-02T04:41:50;101564.78;;;19.17;38.19
69239;BME280;56349;51.816;-0.026;2023-04-02T04:44:17;101565.03;;;19.33;38.24
69239;BME280;56349;51.816;-0.026;2023-04-02T04:46:43;101569.48;;;19.53;38.32
69239;BME280;56349;51.816;-0.026;2023-04-02T04:49:10;101566.69;;;19.46;38.37
69239;BME280;56349;51.816;-0.026;2023-04-02T04:51:34;101568.48;;;19.13;38.44
69239;BME280;56349;51.816;-0.026;2023-04-02T04:53:56;101568.76;;;19.06;38.52
69239;BME280;56349;51.816;-0.026;2023-04-02T04:56:25;101570.70;;;19.03;38.59
69239;BME280;56349;51.816;-0.026;2023-04-02T04:58:49;101580.61;;;19.00;38.73
69239;BME280;56349;51.816;-0.026;2023-04-02T05:01:15;101587.34;;;18.99;38.88
69239;BME280;56349;51.816;-0.026;2023-04-02T05:03:41;101592.97;;;18.98;39.02
69239;BME280;56349;51.816;-0.026;2023-04-02T05:06:09;101601.93;;;19.00;39.18
69239;BME280;56349;51.816;-0.026;2023-04-02T05:08:35;101610.49;;;19.02;39.36
69239;BME280;56349;51.816;-0.026;2023-04-02T05:10:59;101617.96;;;19.00;39.59
69239;BME280;56349;51.816;-0.026;2023-04-02T05:13:23;101622.51;;;19.03;39.77
69239;BME280;56349;51.816;-0.026;2023-04-02T05:15:51;101621.83;;;19.07;39.93
69239;BME280;56349;51.816;-0.026;2023-04-02T05:18:19;101623.99;;;19.12;40.09
69239;BME280;56349;51.816;-0.026;2023-04-02T05:20:43;101629.45;;;19.16;40.23
69239;BME280;56349;51.816;-0.026;2023-04-02T05:23:08;101633.11;;;19.23;40.33
69239;BME280;56349;51.816;-0.026;2023-04-02T05:25:30;101642.21;;;19.29;40.44
69239;BME280;56349;51.816;-0.026;2023-04-02T05:27:59;101652.14;;;19.36;40.50
69239;BME280;56349;51.816;-0.026;2023-04-02T05:32:49;101664.06;;;19.45;40.73
69239;BME280;56349;51.816;-0.026;2023-04-02T05:35:17;101665.67;;;19.74;40.80
69239;BME280;56349;51.816;-0.026;2023-04-02T05:37:38;101664.12;;;19.55;40.86
69239;BME280;56349;51.816;-0.026;2023-04-02T05:40:12;101664.35;;;19.61;40.87
69239;BME280;56349;51.816;-0.026;2023-04-02T05:42:30;101667.14;;;19.69;40.89
69239;BME280;56349;51.816;-0.026;2023-04-02T05:45:00;101674.24;;;19.81;40.83
69239;BME280;56349;51.816;-0.026;2023-04-02T05:47:23;101680.67;;;19.67;40.84
69239;BME280;56349;51.816;-0.026;2023-04-02T05:49:48;101681.24;;;19.76;40.82
69239;BME280;56349;51.816;-0.026;2023-04-02T05:52:14;101680.69;;;19.61;40.79
69239;BME280;56349;51.816;-0.026;2023-04-02T05:54:41;101683.31;;;19.91;40.76
69239;BME280;56349;51.816;-0.026;2023-04-02T05:57:09;101688.52;;;20.17;40.79
69239;BME280;56349;51.816;-0.026;2023-04-02T05:59:32;101691.30;;;20.24;40.79
69239;BME280;56349;51.816;-0.026;2023-04-02T06:01:57;101695.68;;;20.10;40.74
69239;BME280;56349;51.816;-0.026;2023-04-02T06:04:23;101700.84;;;19.95;40.70
69239;BME280;56349;51.816;-0.026;2023-04-02T06:06:50;101705.15;;;20.23;40.68
69239;BME280;56349;51.816;-0.026;2023-04-02T06:09:14;101704.90;;;20.06;40.67
69239;BME280;56349;51.816;-0.026;2023-04-02T06:11:39;101707.23;;;20.12;40.64
69239;BME280;56349;51.816;-0.026;2023-04-02T06:14:03;101704.68;;;20.20;40.58
69239;BME280;56349;51.816;-0.026;2023-04-02T06:16:30;101710.60;;;20.23;40.55
69239;BME280;56349;51.816;-0.026;2023-04-02T06:18:55;101716.33;;;20.27;40.49
69239;BME280;56349;51.816;-0.026;2023-04-02T06:21:21;101723.84;;;20.29;40.42
69239;BME280;56349;51.816;-0.026;2023-04-02T06:23:50;101729.81;;;20.34;40.31
69239;BME280;56349;51.816;-0.026;2023-04-02T06:26:19;101731.68;;;20.38;40.19
69239;BME280;56349;51.816;-0.026;2023-04-02T06:28:43;101731.00;;;20.41;40.10
69239;BME280;56349;51.816;-0.026;2023-04-02T06:31:08;101736.60;;;20.11;39.51
69239;BME280;56349;51.816;-0.026;2023-04-02T06:33:29;101738.16;;;20.37;39.62
69239;BME280;56349;51.816;-0.026;2023-04-02T06:35:55;101740.41;;;20.42;39.74
69239;BME280;56349;51.816;-0.026;2023-04-02T06:38:24;101744.50;;;20.49;39.88
69239;BME280;56349;51.816;-0.026;2023-04-02T06:40:49;101750.11;;;20.77;39.81
69239;BME280;56349;51.816;-0.026;2023-04-02T06:43:23;101750.77;;;20.41;39.87
69239;BME280;56349;51.816;-0.026;2023-04-02T06:45:41;101755.11;;;20.84;39.82
69239;BME280;56349;51.816;-0.026;2023-04-02T06:48:04;101766.55;;;20.78;39.51
69239;BME280;56349;51.816;-0.026;2023-04-02T06:50:34;101775.58;;;21.28;39.39
69239;BME280;56349;51.816;-0.026;2023-04-02T06:52:57;101782.18;;;21.28;38.98
69239;BME280;56349;51.816;-0.026;2023-04-02T06:55:29;101789.50;;;21.54;38.62
69239;BME280;56349;51.816;-0.026;2023-04-02T06:57:47;101785.63;;;21.60;38.26
69239;BME280;56349;51.816;-0.026;2023-04-02T07:00:21;101793.79;;;21.67;37.89
69239;BME280;56349;51.816;-0.026;2023-04-02T07:02:39;101790.90;;;21.93;37.56
69239;BME280;56349;51.816;-0.026;2023-04-02T07:05:06;101795.50;;;22.24;37.29
69239;BME280;56349;51.816;-0.026;2023-04-02T07:07:28;101797.82;;;22.28;36.90
69239;BME280;56349;51.816;-0.026;2023-04-02T07:09:54;101799.71;;;22.56;36.50
69239;BME280;56349;51.816;-0.026;2023-04-02T07:12:23;101801.28;;;22.84;36.13
69239;BME280;56349;51.816;-0.026;2023-04-02T07:14:46;101801.17;;;23.08;35.79
69239;BME280;56349;51.816;-0.026;2023-04-02T07:17:15;101806.90;;;23.06;35.48
69239;BME280;56349;51.816;-0.026;2023-04-02T07:19:37;101814.27;;;23.47;35.21
69239;BME280;56349;51.816;-0.026;2023-04-02T07:22:03;101817.58;;;23.16;34.89
69239;BME280;56349;51.816;-0.026;2023-04-02T07:24:29;101822.83;;;23.36;34.61
69239;BME280;56349;51.816;-0.026;2023-04-02T07:26:55;101831.88;;;23.56;34.29
69239;BME280;56349;51.816;-0.026;2023-04-02T07:29:21;101832.22;;;23.76;33.99
69239;BME280;56349;51.816;-0.026;2023-04-02T07:31:47;101833.36;;;23.95;33.68
69239;BME280;56349;51.816;-0.026;2023-04-02T07:34:13;101829.78;;;24.09;33.42
69239;BME280;56349;51.816;-0.026;2023-04-02T07:36:39;101836.43;;;23.78;33.20
69239;BME280;56349;51.816;-0.026;2023-04-02T07:39:05;101840.94;;;24.11;33.00
69239;BME280;56349;51.816;-0.026;2023-04-02T07:41:30;101843.44;;;23.99;32.80
69239;BME280;56349;51.816;-0.026;2023-04-02T07:43:56;101847.52;;;24.13;32.58
69239;BME280;56349;51.816;-0.026;2023-04-02T07:46:22;101849.29;;;24.22;32.41
69239;BME280;56349;51.816;-0.026;2023-04-02T07:48:48;101848.87;;;24.31;32.31
69239;BME280;56349;51.816;-0.026;2023-04-02T07:51:16;101850.04;;;24.44;32.13
69239;BME280;56349;51.816;-0.026;2023-04-02T07:53:40;101850.38;;;24.54;31.94
69239;BME280;56349;51.816;-0.026;2023-04-02T07:56:06;101853.70;;;24.63;31.79
69239;BME280;56349;51.816;-0.026;2023-04-02T07:58:31;101850.51;;;24.74;31.64
69239;BME280;56349;51.816;-0.026;2023-04-02T08:00:57;101850.85;;;24.82;31.50
69239;BME280;56349;51.816;-0.026;2023-04-02T08:03:22;101854.03;;;24.61;31.42
69239;BME280;56349;51.816;-0.026;2023-04-02T08:05:51;101858.67;;;24.67;31.38
69239;BME280;56349;51.816;-0.026;2023-04-02T08:08:13;101866.75;;;24.72;31.11
69239;BME280;56349;51.816;-0.026;2023-04-02T08:10:39;101866.05;;;24.72;30.59
69239;BME280;56349;51.816;-0.026;2023-04-02T08:13:05;101870.58;;;25.01;30.55
69239;BME280;56349;51.816;-0.026;2023-04-02T08:15:30;101875.48;;;24.77;30.48
69239;BME280;56349;51.816;-0.026;2023-04-02T08:17:56;101880.42;;;24.81;30.40
69239;BME280;56349;51.816;-0.026;2023-04-02T08:20:22;101884.60;;;24.61;30.31
69239;BME280;56349;51.816;-0.026;2023-04-02T08:22:48;101887.55;;;24.84;30.24
69239;BME280;56349;51.816;-0.026;2023-04-02T08:25:14;101890.85;;;24.87;30.15
69239;BME280;56349;51.816;-0.026;2023-04-02T08:27:39;101897.24;;;24.90;30.08
69239;BME280;56349;51.816;-0.026;2023-04-02T08:30:07;101901.52;;;24.93;29.99
69239;BME280;56349;51.816;-0.026;2023-04-02T08:32:30;101909.88;;;24.70;29.93
69239;BME280;56349;51.816;-0.026;2023-04-02T08:34:56;101920.92;;;24.77;29.82
69239;BME280;56349;51.816;-0.026;2023-04-02T08:37:22;101925.29;;;24.80;29.72
69239;BME280;56349;51.816;-0.026;2023-04-02T08:39:48;101934.61;;;24.86;29.67
69239;BME280;56349;51.816;-0.026;2023-04-02T08:42:22;101937.05;;;24.89;29.62
69239;BME280;56349;51.816;-0.026;2023-04-02T08:44:44;101938.27;;;24.92;29.54
69239;BME280;56349;51.816;-0.026;2023-04-02T08:47:06;101938.01;;;25.16;29.45
69239;BME280;56349;51.816;-0.026;2023-04-02T08:49:34;101940.58;;;25.16;29.39
69239;BME280;56349;51.816;-0.026;2023-04-02T08:51:56;101946.95;;;24.94;29.35
69239;BME280;56349;51.816;-0.026;2023-04-02T08:54:26;101949.33;;;24.94;29.29
69239;BME280;56349;51.816;-0.026;2023-04-02T08:56:51;101947.55;;;25.15;29.25
69239;BME280;56349;51.816;-0.026;2023-04-02T08:59:20;101952.21;;;25.15;29.22
69239;BME280;56349;51.816;-0.026;2023-04-02T09:01:44;101953.00;;;24.71;29.15
69239;BME280;56349;51.816;-0.026;2023-04-02T09:04:11;101957.11;;;24.94;29.10
69239;BME280;56349;51.816;-0.026;2023-04-02T09:06:31;101965.08;;;24.94;29.07
69239;BME280;56349;51.816;-0.026;2023-04-02T09:08:56;101968.09;;;24.97;29.00
69239;BME280;56349;51.816;-0.026;2023-04-02T09:11:23;101968.61;;;24.98;28.97
69239;BME280;56349;51.816;-0.026;2023-04-02T09:13:53;101972.53;;;25.22;28.93
69239;BME280;56349;51.816;-0.026;2023-04-02T09:16:15;101978.65;;;24.80;28.87
69239;BME280;56349;51.816;-0.026;2023-04-02T09:18:40;101982.17;;;25.03;28.82
69239;BME280;56349;51.816;-0.026;2023-04-02T09:21:16;101990.46;;;25.01;28.80
69239;BME280;56349;51.816;-0.026;2023-04-02T09:23:30;101994.40;;;25.01;28.76
69239;BME280;56349;51.816;-0.026;2023-04-02T09:25:56;101995.89;;;25.02;28.74
69239;BME280;56349;51.816;-0.026;2023-04-02T09:28:22;101997.34;;;25.01;28.71
69239;BME280;56349;51.816;-0.026;2023-04-02T09:30:59;101999.54;;;25.01;28.68
69239;BME280;56349;51.816;-0.026;2023-04-02T09:33:14;101998.04;;;25.00;28.65
69239;BME280;56349;51.816;-0.026;2023-04-02T09:38:15;101999.96;;;25.02;28.58
69239;BME280;56349;51.816;-0.026;2023-04-02T09:40:32;102003.99;;;24.78;28.54
69239;BME280;56349;51.816;-0.026;2023-04-02T09:43:03;102004.73;;;25.19;28.52
69239;BME280;56349;51.816;-0.026;2023-04-02T09:45:23;102003.87;;;25.12;28.49
69239;BME280;56349;51.816;-0.026;2023-04-02T09:47:49;102007.08;;;24.81;28.48
69239;BME280;56349;51.816;-0.026;2023-04-02T09:50:24;102011.35;;;24.66;28.52
69239;BME280;56349;51.816;-0.026;2023-04-02T09:52:39;102013.98;;;24.69;28.61
69239;BME280;56349;51.816;-0.026;2023-04-02T09:57:30;102017.25;;;24.28;28.82
69239;BME280;56349;51.816;-0.026;2023-04-02T10:02:30;102028.91;;;24.06;29.14
69239;BME280;56349;51.816;-0.026;2023-04-02T10:04:48;102030.99;;;23.78;29.35
69239;BME280;56349;51.816;-0.026;2023-04-02T10:09:38;102047.93;;;23.51;29.67
69239;BME280;56349;51.816;-0.026;2023-04-02T10:12:07;102053.10;;;23.44;29.90
69239;BME280;56349;51.816;-0.026;2023-04-02T10:14:32;102055.52;;;23.19;30.13
69239;BME280;56349;51.816;-0.026;2023-04-02T10:16:58;102053.97;;;22.96;30.31
69239;BME280;56349;51.816;-0.026;2023-04-02T10:19:26;102056.57;;;23.23;30.52
69239;BME280;56349;51.816;-0.026;2023-04-02T10:21:47;102058.49;;;22.78;30.74
69239;BME280;56349;51.816;-0.026;2023-04-02T10:24:14;102055.63;;;22.79;30.94
69239;BME280;56349;51.816;-0.026;2023-04-02T10:26:47;102063.20;;;22.57;31.16
69239;BME280;56349;51.816;-0.026;2023-04-02T10:29:18;102068.15;;;22.38;31.34
69239;BME280;56349;51.816;-0.026;2023-04-02T10:31:32;102068.60;;;22.17;31.55
69239;BME280;56349;51.816;-0.026;2023-04-02T10:33:59;102069.03;;;22.26;31.75
69239;BME280;56349;51.816;-0.026;2023-04-02T10:36:26;102078.98;;;22.11;31.92
69239;BME280;56349;51.816;-0.026;2023-04-02T10:38:50;102078.54;;;22.16;32.10
69239;BME280;56349;51.816;-0.026;2023-04-02T10:41:21;102083.34;;;22.01;32.28
69239;BME280;56349;51.816;-0.026;2023-04-02T10:43:47;102091.09;;;21.86;32.42
69239;BME280;56349;51.816;-0.026;2023-04-02T10:46:06;102090.89;;;21.48;32.59
69239;BME280;56349;51.816;-0.026;2023-04-02T10:48:33;102095.82;;;21.57;32.74
69239;BME280;56349;51.816;-0.026;2023-04-02T10:50:59;102099.38;;;21.45;32.87
69239;BME280;56349;51.816;-0.026;2023-04-02T10:53:23;102101.98;;;21.31;33.05
69239;BME280;56349;51.816;-0.026;2023-04-02T10:55:49;102102.39;;;21.42;33.19
69239;BME280;56349;51.816;-0.026;2023-04-02T10:58:21;102102.13;;;21.07;33.34
69239;BME280;56349;51.816;-0.026;2023-04-02T11:00:38;102100.05;;;21.20;33.49
69239;BME280;56349;51.816;-0.026;2023-04-02T11:03:05;102107.50;;;20.91;33.58
69239;BME280;56349;51.816;-0.026;2023-04-02T11:05:33;102102.24;;;21.02;33.69
69239;BME280;56349;51.816;-0.026;2023-04-02T11:07:59;102104.44;;;20.92;33.85
69239;BME280;56349;51.816;-0.026;2023-04-02T11:10:20;102105.46;;;20.80;33.99
69239;BME280;56349;51.816;-0.026;2023-04-02T11:12:51;102105.83;;;21.00;34.08
69239;BME280;56349;51.816;-0.026;2023-04-02T11:15:15;102105.66;;;20.68;34.25
69239;BME280;56349;51.816;-0.026;2023-04-02T11:17:37;102109.77;;;20.72;34.27
69239;BME280;56349;51.816;-0.026;2023-04-02T11:22:28;102110.25;;;20.85;34.52
69239;BME280;56349;51.816;-0.026;2023-04-02T11:24:55;102111.56;;;20.79;34.64
69239;BME280;56349;51.816;-0.026;2023-04-02T11:27:24;102117.93;;;20.46;34.77
69239;BME280;56349;51.816;-0.026;2023-04-02T11:29:46;102120.49;;;20.66;34.89
69239;BME280;56349;51.816;-0.026;2023-04-02T11:32:24;102125.48;;;20.61;35.03
69239;BME280;56349;51.816;-0.026;2023-04-02T11:37:05;102128.55;;;20.23;35.26
69239;BME280;56349;51.816;-0.026;2023-04-02T11:42:00;102128.97;;;20.43;35.41
69239;BME280;56349;51.816;-0.026;2023-04-02T11:44:23;102139.23;;;20.43;35.45
69239;BME280;56349;51.816;-0.026;2023-04-02T11:46:43;102135.07;;;20.39;35.52
69239;BME280;56349;51.816;-0.026;2023-04-02T11:53:58;102144.65;;;20.39;35.62
69239;BME280;56349;51.816;-0.026;2023-04-02T11:56:30;102139.05;;;20.53;35.50
69239;BME280;56349;51.816;-0.026;2023-04-02T11:58:59;102142.13;;;20.62;35.40
69239;BME280;56349;51.816;-0.026;2023-04-02T12:01:26;102144.23;;;20.65;35.35
69239;BME280;56349;51.816;-0.026;2023-04-02T12:03:52;102145.50;;;20.58;35.41
69239;BME280;56349;51.816;-0.026;2023-04-02T12:06:10;102150.07;;;20.26;35.49
69239;BME280;56349;51.816;-0.026;2023-04-02T12:08:39;102158.04;;;20.46;32.34
69239;BME280;56349;51.816;-0.026;2023-04-02T12:10:59;102167.79;;;20.27;30.67
69239;BME280;56349;51.816;-0.026;2023-04-02T12:15:51;102172.08;;;20.01;32.86
69239;BME280;56349;51.816;-0.026;2023-04-02T12:18:17;102169.79;;;20.26;33.58
69239;BME280;56349;51.816;-0.026;2023-04-02T12:20:44;102168.90;;;20.08;34.26
69239;BME280;56349;51.816;-0.026;2023-04-02T12:25:33;102176.37;;;20.21;34.73
69239;BME280;56349;51.816;-0.026;2023-04-02T12:28:02;102180.84;;;20.22;35.05
69239;BME280;56349;51.816;-0.026;2023-04-02T12:30:23;102179.37;;;20.21;35.13
69239;BME280;56349;51.816;-0.026;2023-04-02T12:32:49;102179.12;;;20.21;34.98
69239;BME280;56349;51.816;-0.026;2023-04-02T12:35:24;102173.98;;;20.21;34.72
69239;BME280;56349;51.816;-0.026;2023-04-02T12:37:39;102173.06;;;20.14;34.52
69239;BME280;56349;51.816;-0.026;2023-04-02T12:40:15;102174.68;;;20.13;34.84
69239;BME280;56349;51.816;-0.026;2023-04-02T12:42:32;102179.79;;;20.11;35.08
69239;BME280;56349;51.816;-0.026;2023-04-02T12:44:57;102185.70;;;20.08;35.25
69239;BME280;56349;51.816;-0.026;2023-04-02T12:47:23;102183.34;;;20.05;32.91
69239;BME280;56349;51.816;-0.026;2023-04-02T12:49:48;102183.57;;;20.08;33.88
69239;BME280;56349;51.816;-0.026;2023-04-02T12:52:16;102183.18;;;20.08;34.41
69239;BME280;56349;51.816;-0.026;2023-04-02T12:54:44;102187.76;;;20.15;34.72
69239;BME280;56349;51.816;-0.026;2023-04-02T12:59:34;102186.86;;;20.29;34.86
69239;BME280;56349;51.816;-0.026;2023-04-02T13:01:59;102183.90;;;20.34;34.93
69239;BME280;56349;51.816;-0.026;2023-04-02T13:04:23;102189.35;;;20.12;34.92
69239;BME280;56349;51.816;-0.026;2023-04-02T13:06:50;102191.74;;;20.63;34.93